Time;durP1;ratioP1;P1;durP2;ratioP2;P2;SDS_P1;SDS_P2;PMS_P1;PMS_P2;Temp;Humidity;BMP_temperature;BMP_pressure;BME280_temperature;BME280_humidity;BME280_pressure;Samples;Min_cycle;Max_cycle;Signal;HPM_P1;HPM_P2
2024/04/12 00:01:01;;;;;;;54.97;25.08;;;;;;;;;;5504235;25;20457;-63
2024/04/12 00:03:29;;;;;;;59.08;28.00;;;;;;;;;;5504406;25;20039;-64
2024/04/12 00:05:57;;;;;;;62.35;28.17;;;;;;;;;;5501216;25;20041;-63
2024/04/12 00:08:25;;;;;;;59.72;27.52;;;;;;;;;;5458834;25;20030;-63
2024/04/12 00:10:52;;;;;;;70.07;28.58;;;;;;;;;;5499707;25;20038;-63
2024/04/12 00:13:20;;;;;;;63.47;27.83;;;;;;;;;;5498311;25;20012;-63
2024/04/12 00:15:47;;;;;;;67.43;27.63;;;;;;;;;;5496139;25;20015;-64
2024/04/12 00:18:15;;;;;;;63.63;27.75;;;;;;;;;;5505341;25;20024;-64
2024/04/12 00:20:43;;;;;;;66.45;25.95;;;;;;;;;;5475338;26;20489;-63
2024/04/12 00:23:12;;;;;;;69.57;27.63;;;;;;;;;;5500679;25;20001;-63
2024/04/12 00:25:39;;;;;;;62.85;25.05;;;;;;;;;;5505703;25;20502;-63
2024/04/12 00:28:09;;;;;;;67.22;25.75;;;;;;;;;;5499879;25;20046;-63
2024/04/12 00:30:38;;;;;;;71.15;27.67;;;;;;;;;;5504024;25;20001;-63
2024/04/12 00:33:10;;;;;;;75.53;30.55;;;;;;;;;;5501767;25;20033;-63
2024/04/12 00:35:37;;;;;;;85.88;31.98;;;;;;;;;;5500887;25;20010;-63
2024/04/12 00:38:09;;;;;;;81.32;34.33;;;;;;;;;;5504126;25;20001;-64
2024/04/12 00:40:40;;;;;;;87.13;36.13;;;;;;;;;;5501972;25;20005;-63
2024/04/12 00:43:12;;;;;;;81.18;33.50;;;;;;;;;;5500337;25;20432;-63
2024/04/12 00:45:45;;;;;;;76.18;31.23;;;;;;;;;;5494738;25;20012;-63
2024/04/12 00:48:14;;;;;;;84.70;33.33;;;;;;;;;;5497491;25;20026;-63
2024/04/12 00:50:44;;;;;;;76.70;31.13;;;;;;;;;;5501980;25;20024;-63
2024/04/12 00:53:13;;;;;;;78.28;29.50;;;;;;;;;;5501746;25;20099;-64
2024/04/12 00:55:41;;;;;;;71.72;28.02;;;;;;;;;;5496829;25;20005;-63
2024/04/12 00:58:09;;;;;;;65.22;27.05;;;;;;;;;;5465155;25;20021;-63
2024/04/12 01:00:36;;;;;;;71.38;27.10;;;;;;;;;;5500792;25;20010;-64
2024/04/12 01:03:05;;;;;;;62.28;25.65;;;;;;;;;;5499542;25;20453;-63
2024/04/12 01:05:33;;;;;;;64.75;25.80;;;;;;;;;;5497249;25;20465;-63
2024/04/12 01:08:00;;;;;;;55.25;24.85;;;;;;;;;;5495462;25;20001;-63
2024/04/12 01:10:30;;;;;;;58.22;23.65;;;;;;;;;;5511169;25;20448;-63
2024/04/12 01:13:02;;;;;;;58.30;23.58;;;;;;;;;;5494879;25;20033;-64
2024/04/12 01:15:32;;;;;;;54.50;22.15;;;;;;;;;;5492435;25;20042;-63
2024/04/12 01:18:04;;;;;;;55.97;22.98;;;;;;;;;;5501883;25;20005;-63
2024/04/12 01:20:34;;;;;;;62.92;22.70;;;;;;;;;;5485813;25;20049;-63
2024/04/12 01:23:03;;;;;;;52.10;20.98;;;;;;;;;;5509663;25;20029;-63
2024/04/12 01:25:31;;;;;;;57.60;22.33;;;;;;;;;;5499972;25;20050;-63
2024/04/12 01:27:59;;;;;;;54.75;22.50;;;;;;;;;;5501296;25;22244;-63
2024/04/12 01:30:30;;;;;;;56.85;22.42;;;;;;;;;;5502712;25;20005;-63
2024/04/12 01:32:57;;;;;;;58.38;21.73;;;;;;;;;;5508439;25;20033;-64
2024/04/12 01:35:26;;;;;;;61.00;24.23;;;;;;;;;;5502606;25;20012;-63
2024/04/12 01:37:57;;;;;;;59.65;23.55;;;;;;;;;;5501070;25;20026;-63
2024/04/12 01:40:25;;;;;;;58.88;23.20;;;;;;;;;;5498209;25;20013;-63
2024/04/12 01:42:53;;;;;;;55.97;24.58;;;;;;;;;;5504667;25;20037;-63
2024/04/12 01:45:26;;;;;;;51.65;22.38;;;;;;;;;;5493641;25;20475;-63
2024/04/12 01:47:54;;;;;;;52.60;21.60;;;;;;;;;;5499164;25;20029;-63
2024/04/12 01:50:22;;;;;;;49.15;21.67;;;;;;;;;;5495883;25;20019;-63
2024/04/12 01:52:50;;;;;;;51.55;22.80;;;;;;;;;;5500404;25;20327;-63
2024/04/12 01:55:19;;;;;;;50.55;21.70;;;;;;;;;;5503589;25;20042;-63
2024/04/12 01:57:49;;;;;;;48.42;21.67;;;;;;;;;;5490709;25;20053;-63
2024/04/12 02:00:20;;;;;;;55.70;23.73;;;;;;;;;;5504915;25;20484;-63
2024/04/12 02:02:51;;;;;;;53.80;24.05;;;;;;;;;;5496952;25;20457;-63
2024/04/12 02:05:29;;;;;;;56.90;23.08;;;;;;;;;;5503582;25;20058;-63
2024/04/12 02:07:56;;;;;;;58.20;24.48;;;;;;;;;;5505657;25;20043;-63
2024/04/12 02:10:24;;;;;;;55.65;24.10;;;;;;;;;;5459897;25;20015;-63
2024/04/12 02:12:54;;;;;;;56.53;25.58;;;;;;;;;;5500374;25;20033;-62
2024/04/12 02:15:25;;;;;;;60.55;24.20;;;;;;;;;;5506601;25;20010;-63
2024/04/12 02:17:57;;;;;;;58.22;24.05;;;;;;;;;;5505274;25;20032;-63
2024/04/12 02:20:35;;;;;;;49.92;22.73;;;;;;;;;;5496133;25;20041;-63
2024/04/12 02:23:05;;;;;;;49.38;21.63;;;;;;;;;;5502945;25;20025;-63
2024/04/12 02:25:33;;;;;;;49.03;21.50;;;;;;;;;;5466647;25;20003;-62
2024/04/12 02:28:06;;;;;;;41.63;21.60;;;;;;;;;;5494428;25;20025;-63
2024/04/12 02:30:41;;;;;;;;;;;;;;;;;;5500001;25;20493;-63
2024/04/12 02:33:09;;;;;;;48.03;21.50;;;;;;;;;;5494112;25;19956;-63
2024/04/12 02:35:41;;;;;;;44.63;22.48;;;;;;;;;;5493731;25;20074;-63
2024/04/12 02:38:10;;;;;;;40.47;21.27;;;;;;;;;;5495895;25;20318;-63
2024/04/12 02:40:41;;;;;;;46.28;21.52;;;;;;;;;;5499790;25;20311;-63
2024/04/12 02:43:10;;;;;;;42.55;20.80;;;;;;;;;;5497442;25;20002;-63
2024/04/12 02:45:38;;;;;;;42.45;20.45;;;;;;;;;;5496909;25;20437;-63
2024/04/12 02:48:06;;;;;;;39.00;18.83;;;;;;;;;;5469881;25;20479;-63
2024/04/12 02:50:34;;;;;;;38.08;17.10;;;;;;;;;;5498301;25;20038;-63
2024/04/12 02:53:03;;;;;;;35.83;17.27;;;;;;;;;;5489965;25;20030;-63
2024/04/12 02:55:31;;;;;;;29.63;14.93;;;;;;;;;;5495636;25;20450;-63
2024/04/12 02:57:58;;;;;;;36.10;15.23;;;;;;;;;;5503955;25;20044;-63
2024/04/12 03:00:27;;;;;;;32.00;14.38;;;;;;;;;;5507697;25;20041;-63
2024/04/12 03:02:54;;;;;;;23.00;12.45;;;;;;;;;;5502162;25;20037;-63
2024/04/12 03:05:23;;;;;;;25.20;12.15;;;;;;;;;;5502966;25;20029;-63
2024/04/12 03:07:52;;;;;;;21.98;11.35;;;;;;;;;;5499817;25;20819;-63
2024/04/12 03:10:23;;;;;;;24.80;10.82;;;;;;;;;;5507260;25;20061;-63
2024/04/12 03:12:51;;;;;;;20.63;10.85;;;;;;;;;;5504303;25;20033;-63
2024/04/12 03:15:19;;;;;;;21.30;10.88;;;;;;;;;;5505744;25;20029;-62
2024/04/12 03:17:48;;;;;;;19.15;10.55;;;;;;;;;;5517930;25;20497;-63
2024/04/12 03:20:15;;;;;;;23.58;11.02;;;;;;;;;;5507176;25;22531;-63
2024/04/12 03:22:44;;;;;;;22.98;10.85;;;;;;;;;;5511432;25;20507;-63
2024/04/12 03:25:11;;;;;;;22.75;12.30;;;;;;;;;;5512904;25;20057;-63
2024/04/12 03:27:39;;;;;;;28.67;12.05;;;;;;;;;;5503621;25;20029;-63
2024/04/12 03:30:14;;;;;;;26.08;12.15;;;;;;;;;;5502263;25;20453;-63
2024/04/12 03:32:44;;;;;;;27.15;13.05;;;;;;;;;;5504320;25;20129;-63
2024/04/12 03:35:12;;;;;;;27.67;13.80;;;;;;;;;;5507510;25;20068;-63
2024/04/12 03:37:40;;;;;;;29.30;13.73;;;;;;;;;;5505698;25;20049;-63
2024/04/12 03:40:16;;;;;;;26.95;13.68;;;;;;;;;;5509533;25;20033;-63
2024/04/12 03:42:44;;;;;;;29.90;14.90;;;;;;;;;;5504434;25;20021;-63
2024/04/12 03:45:13;;;;;;;39.42;16.63;;;;;;;;;;5509627;25;20026;-63
2024/04/12 03:47:41;;;;;;;30.40;15.05;;;;;;;;;;5499253;25;20028;-63
2024/04/12 03:50:13;;;;;;;35.13;17.05;;;;;;;;;;5492826;25;20012;-62
2024/04/12 03:52:41;;;;;;;38.72;16.88;;;;;;;;;;5503455;25;20019;-62
2024/04/12 03:55:09;;;;;;;37.05;16.60;;;;;;;;;;5505387;25;20446;-63
2024/04/12 03:57:38;;;;;;;37.42;16.77;;;;;;;;;;5505168;25;20041;-63
2024/04/12 04:00:11;;;;;;;39.75;19.92;;;;;;;;;;5499964;25;20444;-62
2024/04/12 04:02:39;;;;;;;43.17;19.87;;;;;;;;;;5501313;25;20002;-62
2024/04/12 04:05:14;;;;;;;47.33;22.25;;;;;;;;;;5506026;25;21403;-62
2024/04/12 04:07:45;;;;;;;46.70;21.27;;;;;;;;;;5496630;25;20022;-62
2024/04/12 04:10:15;;;;;;;43.00;20.58;;;;;;;;;;5509206;25;20045;-62
2024/04/12 04:12:49;;;;;;;51.45;21.77;;;;;;;;;;5504618;25;20005;-62
2024/04/12 04:15:16;;;;;;;42.15;20.00;;;;;;;;;;5503119;25;20030;-62
2024/04/12 04:17:50;;;;;;;45.53;20.88;;;;;;;;;;5495324;25;20034;-63
2024/04/12 04:20:17;;;;;;;48.17;21.67;;;;;;;;;;5496418;25;20074;-62
2024/04/12 04:22:49;;;;;;;41.60;18.67;;;;;;;;;;5505521;25;20305;-63
2024/04/12 04:25:19;;;;;;;41.90;18.75;;;;;;;;;;5499666;25;20460;-63
2024/04/12 04:27:47;;;;;;;39.03;18.55;;;;;;;;;;5499811;25;20001;-62
2024/04/12 04:30:18;;;;;;;40.00;18.05;;;;;;;;;;5498801;25;20092;-63
2024/04/12 04:32:45;;;;;;;43.85;18.23;;;;;;;;;;5507149;25;20001;-63
2024/04/12 04:35:13;;;;;;;38.60;18.00;;;;;;;;;;5502668;25;20120;-63
2024/04/12 04:37:40;;;;;;;44.17;19.60;;;;;;;;;;5501632;25;20038;-63
2024/04/12 04:40:11;;;;;;;41.25;18.13;;;;;;;;;;5503608;25;20034;-62
2024/04/12 04:42:39;;;;;;;46.28;18.27;;;;;;;;;;5500085;25;20033;-63
2024/04/12 04:45:07;;;;;;;42.85;17.70;;;;;;;;;;5465379;25;20025;-62
2024/04/12 04:47:36;;;;;;;37.20;17.45;;;;;;;;;;5463782;25;20005;-62
2024/04/12 04:50:04;;;;;;;39.10;17.13;;;;;;;;;;5502435;25;20033;-62
2024/04/12 04:52:35;;;;;;;38.80;16.52;;;;;;;;;;5508942;25;20137;-62
2024/04/12 04:55:03;;;;;;;33.85;16.55;;;;;;;;;;5514021;25;20041;-62
2024/04/12 04:57:35;;;;;;;42.30;17.85;;;;;;;;;;5505389;25;20461;-62
2024/04/12 05:00:06;;;;;;;40.92;18.13;;;;;;;;;;5497122;25;20065;-62
2024/04/12 05:02:34;;;;;;;34.63;17.08;;;;;;;;;;5505696;25;20010;-64
2024/04/12 05:05:04;;;;;;;38.90;17.10;;;;;;;;;;5511096;25;20033;-62
2024/04/12 05:07:34;;;;;;;40.55;18.02;;;;;;;;;;5502647;25;20049;-62
2024/04/12 05:10:08;;;;;;;39.95;17.80;;;;;;;;;;5510871;25;20041;-63
2024/04/12 05:12:37;;;;;;;39.70;17.55;;;;;;;;;;5505808;25;20121;-63
2024/04/12 05:15:10;;;;;;;40.65;18.08;;;;;;;;;;5507063;25;20037;-63
2024/04/12 05:17:38;;;;;;;44.75;17.92;;;;;;;;;;5509471;25;20029;-64
2024/04/12 05:20:14;;;;;;;39.97;17.65;;;;;;;;;;5506809;25;20116;-62
2024/04/12 05:22:42;;;;;;;45.40;18.45;;;;;;;;;;5504913;25;20020;-62
2024/04/12 05:25:13;;;;;;;42.95;17.50;;;;;;;;;;5504130;25;20041;-63
2024/04/12 05:27:41;;;;;;;41.53;18.13;;;;;;;;;;5506240;25;20016;-64
2024/04/12 05:30:08;;;;;;;47.08;18.98;;;;;;;;;;5504915;25;20005;-62
2024/04/12 05:32:40;;;;;;;45.58;19.02;;;;;;;;;;5505976;25;20023;-63
2024/04/12 05:35:08;;;;;;;39.05;16.60;;;;;;;;;;5504171;25;20478;-63
2024/04/12 05:37:35;;;;;;;37.65;16.10;;;;;;;;;;5508581;25;20002;-63
2024/04/12 05:40:04;;;;;;;38.67;15.55;;;;;;;;;;5506890;25;20025;-63
2024/04/12 05:42:32;;;;;;;40.80;17.15;;;;;;;;;;5505049;25;20479;-63
2024/04/12 05:45:04;;;;;;;42.67;17.73;;;;;;;;;;5506612;25;20029;-63
2024/04/12 05:47:31;;;;;;;44.72;18.67;;;;;;;;;;5512051;25;20041;-63
2024/04/12 05:50:01;;;;;;;46.55;20.58;;;;;;;;;;5516748;25;20019;-62
2024/04/12 05:52:29;;;;;;;47.05;19.15;;;;;;;;;;5508039;25;20019;-63
2024/04/12 05:54:58;;;;;;;58.25;22.80;;;;;;;;;;5477210;25;20015;-63
2024/04/12 05:57:26;;;;;;;60.40;25.05;;;;;;;;;;5506999;25;20020;-63
2024/04/12 05:59:54;;;;;;;67.13;29.60;;;;;;;;;;5518280;25;20068;-63
2024/04/12 06:02:26;;;;;;;70.65;32.80;;;;;;;;;;5501832;25;19998;-63
2024/04/12 06:04:55;;;;;;;84.78;36.38;;;;;;;;;;5507831;25;20084;-63
2024/04/12 06:07:26;;;;;;;82.38;36.20;;;;;;;;;;5501590;25;20034;-63
2024/04/12 06:09:53;;;;;;;81.22;34.35;;;;;;;;;;5494374;25;20416;-62
2024/04/12 06:12:24;;;;;;;80.90;34.15;;;;;;;;;;5502259;25;20037;-64
2024/04/12 06:14:51;;;;;;;78.47;32.75;;;;;;;;;;5498296;25;20477;-63
2024/04/12 06:17:22;;;;;;;74.05;33.13;;;;;;;;;;5500084;25;20057;-64
2024/04/12 06:19:50;;;;;;;77.88;33.55;;;;;;;;;;5502821;25;20088;-63
2024/04/12 06:22:18;;;;;;;70.05;29.48;;;;;;;;;;5520074;26;20372;-63
2024/04/12 06:24:49;;;;;;;71.40;28.50;;;;;;;;;;5520322;25;20021;-63
2024/04/12 06:27:17;;;;;;;56.95;25.88;;;;;;;;;;5515922;26;20022;-64
2024/04/12 06:29:46;;;;;;;65.53;26.40;;;;;;;;;;5513113;26;20056;-64
2024/04/12 06:32:16;;;;;;;57.22;24.58;;;;;;;;;;5519779;26;20062;-64
2024/04/12 06:34:43;;;;;;;53.28;24.00;;;;;;;;;;5520659;25;20025;-64
2024/04/12 06:37:15;;;;;;;49.85;22.77;;;;;;;;;;5518259;25;20464;-64
2024/04/12 06:39:44;;;;;;;55.42;23.20;;;;;;;;;;5520911;25;20361;-64
2024/04/12 06:42:11;;;;;;;47.00;22.15;;;;;;;;;;5520556;25;20440;-64
2024/04/12 06:44:38;;;;;;;47.38;20.23;;;;;;;;;;5512555;26;20382;-64
2024/04/12 06:47:10;;;;;;;40.85;18.17;;;;;;;;;;5520312;25;20057;-64
2024/04/12 06:49:44;;;;;;;36.00;17.85;;;;;;;;;;5520287;26;20353;-64
2024/04/12 06:52:14;;;;;;;37.17;16.58;;;;;;;;;;5519753;26;20026;-63
2024/04/12 06:54:42;;;;;;;40.88;17.10;;;;;;;;;;5520324;26;20025;-63
2024/04/12 06:57:17;;;;;;;33.97;14.50;;;;;;;;;;5520163;25;20025;-63
2024/04/12 06:59:47;;;;;;;34.70;15.05;;;;;;;;;;5513987;26;20022;-63
2024/04/12 07:02:15;;;;;;;32.08;14.20;;;;;;;;;;5520234;25;20353;-63
2024/04/12 07:04:42;;;;;;;29.08;14.00;;;;;;;;;;5519118;26;20033;-63
2024/04/12 07:07:10;;;;;;;30.00;13.55;;;;;;;;;;5519354;25;20029;-63
2024/04/12 07:09:38;;;;;;;35.65;15.65;;;;;;;;;;5520366;25;20329;-63
2024/04/12 07:12:06;;;;;;;28.30;14.13;;;;;;;;;;5519172;26;20025;-63
2024/04/12 07:14:36;;;;;;;28.90;13.30;;;;;;;;;;5517794;26;20037;-63
2024/04/12 07:17:19;;;;;;;30.52;14.55;;;;;;;;;;5518264;26;20071;-63
2024/04/12 07:19:49;;;;;;;31.73;14.90;;;;;;;;;;5519872;25;20485;-63
2024/04/12 07:22:19;;;;;;;29.23;14.63;;;;;;;;;;5519267;26;20018;-63
2024/04/12 07:24:50;;;;;;;29.45;15.02;;;;;;;;;;5519382;26;20477;-63
2024/04/12 07:27:22;;;;;;;33.33;17.38;;;;;;;;;;5518739;26;20369;-63
2024/04/12 07:29:50;;;;;;;31.98;16.90;;;;;;;;;;5519515;25;20045;-63
2024/04/12 07:32:22;;;;;;;32.10;16.50;;;;;;;;;;5519699;25;20361;-63
2024/04/12 07:34:49;;;;;;;29.15;15.73;;;;;;;;;;5512678;26;20025;-63
2024/04/12 07:37:26;;;;;;;27.85;14.45;;;;;;;;;;5518972;26;20469;-63
2024/04/12 07:40:15;;;;;;;31.63;16.17;;;;;;;;;;5519522;26;20141;-63
2024/04/12 07:42:45;;;;;;;25.17;14.95;;;;;;;;;;5515497;26;20060;-62
2024/04/12 07:45:17;;;;;;;25.90;15.00;;;;;;;;;;5522719;25;20029;-63
2024/04/12 07:47:54;;;;;;;25.02;15.32;;;;;;;;;;5516471;26;20053;-62
2024/04/12 07:50:31;;;;;;;23.38;13.05;;;;;;;;;;5523442;25;20339;-63
2024/04/12 07:53:10;;;;;;;23.05;12.80;;;;;;;;;;5523249;26;20017;-63
2024/04/12 07:55:39;;;;;;;16.48;10.10;;;;;;;;;;5522609;25;20382;-63
2024/04/12 07:58:08;;;;;;;21.67;11.25;;;;;;;;;;5523809;25;20029;-63
2024/04/12 08:00:45;;;;;;;22.35;10.23;;;;;;;;;;5523488;25;20025;-62
2024/04/12 08:03:16;;;;;;;20.17;9.68;;;;;;;;;;5522417;26;20025;-63
2024/04/12 08:06:00;;;;;;;19.38;8.88;;;;;;;;;;5522136;26;20489;-63
2024/04/12 08:08:28;;;;;;;15.38;7.53;;;;;;;;;;5522394;26;20582;-63
2024/04/12 08:10:57;;;;;;;18.95;6.85;;;;;;;;;;5517430;26;20390;-63
2024/04/12 08:13:28;;;;;;;15.20;6.82;;;;;;;;;;5522496;26;20025;-62
2024/04/12 08:16:00;;;;;;;14.88;5.88;;;;;;;;;;5519404;25;20029;-63
2024/04/12 08:18:28;;;;;;;11.82;4.82;;;;;;;;;;5522429;25;20034;-63
2024/04/12 08:21:01;;;;;;;12.32;4.88;;;;;;;;;;5522623;25;20029;-63
2024/04/12 08:23:29;;;;;;;15.32;4.82;;;;;;;;;;5479942;26;20513;-63
2024/04/12 08:26:09;;;;;;;12.30;4.03;;;;;;;;;;5516785;26;20117;-63
2024/04/12 08:28:40;;;;;;;13.23;4.63;;;;;;;;;;5519528;26;20021;-63
2024/04/12 08:31:10;;;;;;;14.07;5.00;;;;;;;;;;5521986;25;20021;-63
2024/04/12 08:33:45;;;;;;;15.85;4.97;;;;;;;;;;5522677;26;20052;-62
2024/04/12 08:36:16;;;;;;;15.77;4.75;;;;;;;;;;5516215;26;20052;-62
2024/04/12 08:38:54;;;;;;;14.45;4.60;;;;;;;;;;5521935;25;20037;-62
2024/04/12 08:41:23;;;;;;;15.45;4.07;;;;;;;;;;5522831;25;20321;-62
2024/04/12 08:43:58;;;;;;;14.63;5.10;;;;;;;;;;5521150;25;20414;-63
2024/04/12 08:46:33;;;;;;;14.27;5.35;;;;;;;;;;5503783;26;20021;-63
2024/04/12 08:49:03;;;;;;;20.88;5.63;;;;;;;;;;5522266;25;20029;-63
2024/04/12 08:51:32;;;;;;;14.80;5.53;;;;;;;;;;5521343;25;20037;-63
2024/04/12 08:54:04;;;;;;;13.68;5.57;;;;;;;;;;5521253;26;20025;-63
2024/04/12 08:56:31;;;;;;;12.98;5.22;;;;;;;;;;5522478;25;20037;-63
2024/04/12 08:59:05;;;;;;;16.42;5.95;;;;;;;;;;5521331;25;20038;-63
2024/04/12 09:01:33;;;;;;;;;;;;;;;;;;5507004;26;20022;-62
2024/04/12 09:04:04;;;;;;;13.88;5.00;;;;;;;;;;5522325;25;19975;-63
2024/04/12 09:06:35;;;;;;;15.15;4.85;;;;;;;;;;5521308;25;20021;-63
2024/04/12 09:09:02;;;;;;;13.73;5.38;;;;;;;;;;5521945;25;20041;-63
2024/04/12 09:11:31;;;;;;;16.08;4.88;;;;;;;;;;5520948;26;20371;-63
2024/04/12 09:14:09;;;;;;;12.98;4.60;;;;;;;;;;5522075;25;20489;-63
2024/04/12 09:16:47;;;;;;;16.35;5.38;;;;;;;;;;5514407;26;20022;-62
2024/04/12 09:19:15;;;;;;;15.27;4.78;;;;;;;;;;5507535;26;20025;-63
2024/04/12 09:21:51;;;;;;;14.70;5.30;;;;;;;;;;5518602;25;20145;-63
2024/04/12 09:24:21;;;;;;;15.75;5.22;;;;;;;;;;5521000;26;20025;-63
2024/04/12 09:26:55;;;;;;;14.48;5.25;;;;;;;;;;5520597;25;20022;-63
2024/04/12 09:29:27;;;;;;;12.20;4.20;;;;;;;;;;5521789;25;20018;-62
2024/04/12 09:34:46;;;;;;;11.57;4.65;;;;;;;;;;5520894;25;20029;-63
2024/04/12 09:42:47;;;;;;;12.52;4.75;;;;;;;;;;5521952;25;20030;-63
2024/04/12 09:45:19;;;;;;;15.52;4.78;;;;;;;;;;5517134;26;20229;-63
2024/04/12 10:37:56;;;;;;;11.45;3.05;;;;;;;;;;5520108;26;20033;-63
2024/04/12 10:40:23;;;;;;;18.88;3.60;;;;;;;;;;5520276;25;20029;-63
2024/04/12 10:42:52;;;;;;;14.50;4.35;;;;;;;;;;5513492;26;20026;-63
2024/04/12 10:45:20;;;;;;;13.02;3.90;;;;;;;;;;5519940;26;20017;-63
2024/04/12 10:47:47;;;;;;;15.10;3.78;;;;;;;;;;5520277;26;20026;-63
2024/04/12 10:50:15;;;;;;;14.45;4.15;;;;;;;;;;5519285;25;20802;-63
2024/04/12 10:52:43;;;;;;;16.48;3.55;;;;;;;;;;5511684;26;20049;-63
2024/04/12 10:55:11;;;;;;;17.45;3.85;;;;;;;;;;5520215;25;20348;-63
2024/04/12 10:57:40;;;;;;;13.05;3.08;;;;;;;;;;5519551;25;20029;-63
2024/04/12 11:00:14;;;;;;;18.17;3.35;;;;;;;;;;5513893;26;20412;-63
2024/04/12 11:02:54;;;;;;;20.10;3.50;;;;;;;;;;5519891;26;20025;-63
2024/04/12 11:07:51;;;;;;;16.33;3.72;;;;;;;;;;5520154;26;20025;-63
2024/04/12 11:10:24;;;;;;;15.05;3.15;;;;;;;;;;5520109;25;20018;-63
2024/04/12 11:12:59;;;;;;;15.10;3.50;;;;;;;;;;5519337;25;20425;-63
2024/04/12 11:31:58;;;;;;;18.15;4.20;;;;;;;;;;5521503;26;20482;-63
2024/04/12 11:34:30;;;;;;;16.02;3.95;;;;;;;;;;5522524;25;20085;-63
2024/04/12 11:37:05;;;;;;;16.33;3.60;;;;;;;;;;5523185;25;20021;-63
2024/04/12 11:39:36;;;;;;;14.27;3.90;;;;;;;;;;5522793;25;20034;-63
2024/04/12 11:42:04;;;;;;;14.27;3.25;;;;;;;;;;5518327;26;20142;-63
2024/04/12 11:44:35;;;;;;;16.35;3.30;;;;;;;;;;5516196;25;20018;-63
2024/04/12 11:47:03;;;;;;;14.98;3.65;;;;;;;;;;5512555;26;20024;-63
2024/04/12 11:49:41;;;;;;;14.65;3.25;;;;;;;;;;5523071;26;20025;-63
2024/04/12 11:52:15;;;;;;;13.55;3.70;;;;;;;;;;5522952;25;20034;-63
2024/04/12 11:54:45;;;;;;;15.77;4.45;;;;;;;;;;5522294;25;20025;-63
2024/04/12 11:57:12;;;;;;;15.57;4.05;;;;;;;;;;5522863;25;20033;-63
2024/04/12 11:59:43;;;;;;;16.67;4.43;;;;;;;;;;5523359;25;20021;-63
2024/04/12 12:02:14;;;;;;;14.63;3.83;;;;;;;;;;5515787;26;20034;-63
2024/04/12 12:04:41;;;;;;;15.15;4.78;;;;;;;;;;5516217;25;20021;-63
2024/04/12 12:07:10;;;;;;;16.02;3.63;;;;;;;;;;5522836;26;20022;-63
2024/04/12 12:09:37;;;;;;;17.02;3.90;;;;;;;;;;5522137;26;20057;-63
2024/04/12 12:12:10;;;;;;;18.17;3.92;;;;;;;;;;5523098;25;20484;-63
2024/04/12 12:14:38;;;;;;;14.38;3.95;;;;;;;;;;5519910;25;20356;-63
2024/04/12 12:17:06;;;;;;;17.25;4.15;;;;;;;;;;5516162;26;20034;-63
2024/04/12 12:19:34;;;;;;;16.33;3.67;;;;;;;;;;5522665;26;20034;-63
2024/04/12 12:22:02;;;;;;;13.73;3.75;;;;;;;;;;5519019;26;20038;-63
2024/04/12 12:24:30;;;;;;;14.82;3.53;;;;;;;;;;5522473;25;20061;-63
2024/04/12 12:26:58;;;;;;;14.98;3.90;;;;;;;;;;5522722;25;20357;-63
2024/04/12 12:29:26;;;;;;;15.10;3.47;;;;;;;;;;5520589;25;20034;-64
2024/04/12 12:31:55;;;;;;;15.65;4.25;;;;;;;;;;5522557;25;20428;-63
2024/04/12 12:34:22;;;;;;;13.50;3.80;;;;;;;;;;5522639;25;20085;-63
2024/04/12 12:36:50;;;;;;;11.70;3.50;;;;;;;;;;5521503;26;20026;-63
2024/04/12 12:39:19;;;;;;;14.63;4.00;;;;;;;;;;5522273;26;20394;-63
2024/04/12 12:41:47;;;;;;;13.93;4.10;;;;;;;;;;5522180;25;20321;-63
2024/04/12 12:44:18;;;;;;;19.00;3.97;;;;;;;;;;5521391;26;20017;-63
2024/04/12 12:46:45;;;;;;;17.70;4.18;;;;;;;;;;5522468;25;20037;-63
2024/04/12 12:49:13;;;;;;;14.32;4.18;;;;;;;;;;5522617;26;20025;-63
2024/04/12 12:51:41;;;;;;;19.15;4.05;;;;;;;;;;5521244;26;20069;-63
2024/04/12 12:54:08;;;;;;;16.08;3.95;;;;;;;;;;5508119;26;20381;-63
2024/04/12 12:56:35;;;;;;;21.05;4.30;;;;;;;;;;5521476;25;20049;-63
2024/04/12 12:59:03;;;;;;;17.02;3.90;;;;;;;;;;5522271;25;20376;-63
2024/04/12 13:01:34;;;;;;;18.27;4.05;;;;;;;;;;5522050;26;20025;-63
2024/04/12 13:04:07;;;;;;;15.20;4.28;;;;;;;;;;5513983;26;20034;-63
2024/04/12 13:06:35;;;;;;;12.80;3.85;;;;;;;;;;5522024;26;20216;-63
2024/04/12 13:09:04;;;;;;;14.20;4.03;;;;;;;;;;5521655;25;20033;-63
2024/04/12 13:11:31;;;;;;;17.00;4.03;;;;;;;;;;5520516;25;20026;-63
2024/04/12 13:13:59;;;;;;;14.57;3.75;;;;;;;;;;5522147;25;20029;-63
2024/04/12 13:16:27;;;;;;;16.50;4.18;;;;;;;;;;5507859;26;20026;-63
2024/04/12 13:18:56;;;;;;;17.08;4.53;;;;;;;;;;5520519;26;20029;-63
2024/04/12 13:21:24;;;;;;;14.48;3.40;;;;;;;;;;5521861;25;20031;-63
2024/04/12 13:23:53;;;;;;;16.20;4.53;;;;;;;;;;5521955;26;20038;-63
2024/04/12 13:26:25;;;;;;;14.77;4.05;;;;;;;;;;5521085;25;20041;-63
2024/04/12 13:28:53;;;;;;;16.55;4.10;;;;;;;;;;5516455;26;20026;-63
2024/04/12 13:31:29;;;;;;;20.65;4.70;;;;;;;;;;5521560;25;20021;-63
2024/04/12 13:33:57;;;;;;;18.38;3.72;;;;;;;;;;5521016;25;20417;-63
2024/04/12 13:36:25;;;;;;;15.35;3.58;;;;;;;;;;5521709;26;20018;-63
2024/04/12 13:38:53;;;;;;;12.18;3.38;;;;;;;;;;5520873;25;20022;-63
2024/04/12 13:41:21;;;;;;;17.88;5.18;;;;;;;;;;5519789;25;20093;-63
2024/04/12 13:43:49;;;;;;;15.55;3.83;;;;;;;;;;5521613;26;20029;-63
2024/04/12 13:51:50;;;;;;;14.93;3.78;;;;;;;;;;5519041;26;20029;-63
2024/04/12 13:54:23;;;;;;;14.50;4.43;;;;;;;;;;5520143;25;20510;-63
2024/04/12 13:56:57;;;;;;;12.52;3.33;;;;;;;;;;5521012;26;20025;-63
2024/04/12 13:59:25;;;;;;;15.85;3.85;;;;;;;;;;5516255;26;20021;-63
2024/04/12 14:01:52;;;;;;;17.13;4.15;;;;;;;;;;5513290;26;20488;-63
2024/04/12 14:04:20;;;;;;;17.67;4.90;;;;;;;;;;5520944;25;20098;-63
2024/04/12 14:06:48;;;;;;;18.70;4.20;;;;;;;;;;5521306;25;20029;-63
2024/04/12 14:09:21;;;;;;;17.08;4.28;;;;;;;;;;5520577;25;20033;-63
2024/04/12 14:11:49;;;;;;;16.48;3.85;;;;;;;;;;5511119;26;20030;-63
2024/04/12 14:14:20;;;;;;;15.50;4.18;;;;;;;;;;5511658;26;20033;-63
2024/04/12 14:16:48;;;;;;;20.02;5.00;;;;;;;;;;5518906;25;20099;-63
2024/04/12 14:19:22;;;;;;;16.85;4.40;;;;;;;;;;5520800;25;20030;-63
2024/04/12 14:21:51;;;;;;;22.25;6.18;;;;;;;;;;5513753;25;20338;-63
2024/04/12 14:27:07;;;;;;;16.60;4.47;;;;;;;;;;5520797;25;20021;-63
2024/04/12 14:29:35;;;;;;;13.63;3.88;;;;;;;;;;5517023;25;20026;-63
2024/04/12 14:32:11;;;;;;;19.85;5.40;;;;;;;;;;5520521;25;20022;-63
2024/04/12 14:34:42;;;;;;;13.10;3.78;;;;;;;;;;5520573;25;20029;-63
2024/04/12 14:37:13;;;;;;;22.40;4.70;;;;;;;;;;5519617;25;20397;-63
2024/04/12 14:39:42;;;;;;;15.02;3.85;;;;;;;;;;5520770;26;20025;-63
2024/04/12 14:42:16;;;;;;;12.68;4.22;;;;;;;;;;5511836;26;20049;-63
2024/04/12 14:44:43;;;;;;;13.15;3.42;;;;;;;;;;5520289;26;20025;-63
2024/04/12 14:47:11;;;;;;;16.73;4.80;;;;;;;;;;5518068;26;20361;-63
2024/04/12 14:49:39;;;;;;;18.60;4.28;;;;;;;;;;5519581;25;20140;-63
2024/04/12 14:52:13;;;;;;;16.95;4.40;;;;;;;;;;5515718;26;20024;-63
2024/04/12 14:54:41;;;;;;;20.08;3.95;;;;;;;;;;5509634;26;20022;-63
2024/04/12 14:57:08;;;;;;;18.02;4.95;;;;;;;;;;5522674;26;20314;-63
2024/04/12 14:59:36;;;;;;;17.80;5.88;;;;;;;;;;5524276;25;20037;-63
2024/04/12 15:02:05;;;;;;;16.75;4.57;;;;;;;;;;5523676;25;20025;-63
2024/04/12 15:48:54;;;;;;;16.50;3.75;;;;;;;;;;5523535;26;20029;-62
2024/04/12 15:51:26;;;;;;;17.80;3.63;;;;;;;;;;5516839;25;20327;-62
2024/04/12 15:53:58;;;;;;;15.45;3.17;;;;;;;;;;5522064;26;20472;-62
2024/04/12 16:12:45;;;;;;;15.93;2.97;;;;;;;;;;5518807;25;20352;-63
2024/04/12 16:15:12;;;;;;;15.82;3.28;;;;;;;;;;5522204;25;20540;-62
2024/04/12 16:17:41;;;;;;;18.73;3.67;;;;;;;;;;5522404;25;20102;-63
2024/04/12 16:20:09;;;;;;;19.60;3.60;;;;;;;;;;5522403;25;20122;-63
2024/04/12 16:22:38;;;;;;;12.15;2.47;;;;;;;;;;5520976;25;20038;-63
2024/04/12 16:25:06;;;;;;;15.80;3.88;;;;;;;;;;5523046;25;20473;-63
2024/04/12 16:27:34;;;;;;;12.15;3.20;;;;;;;;;;5515870;26;20095;-64
2024/04/12 16:30:01;;;;;;;14.80;4.03;;;;;;;;;;5522346;26;20019;-63
2024/04/12 16:32:29;;;;;;;18.52;3.30;;;;;;;;;;5498983;26;20392;-63
2024/04/12 16:34:57;;;;;;;13.95;3.70;;;;;;;;;;5521777;25;20432;-63
2024/04/12 16:37:25;;;;;;;15.05;3.85;;;;;;;;;;5522528;26;20365;-63
2024/04/12 16:39:53;;;;;;;15.45;3.88;;;;;;;;;;5491352;26;20472;-63
2024/04/12 16:42:20;;;;;;;16.98;3.55;;;;;;;;;;5521677;25;20033;-63
2024/04/12 16:44:48;;;;;;;13.60;3.33;;;;;;;;;;5522014;25;20049;-63
2024/04/12 16:47:15;;;;;;;16.27;3.95;;;;;;;;;;5522591;26;20032;-63
2024/04/12 16:49:42;;;;;;;15.07;3.40;;;;;;;;;;5515081;26;20464;-63
2024/04/12 16:52:10;;;;;;;16.55;5.15;;;;;;;;;;5522106;25;20018;-63
2024/04/12 16:54:37;;;;;;;15.77;4.50;;;;;;;;;;5522119;25;20022;-63
2024/04/12 16:57:05;;;;;;;17.88;4.07;;;;;;;;;;5521630;25;20021;-63
2024/04/12 16:59:33;;;;;;;16.75;3.95;;;;;;;;;;5521471;25;20029;-63
2024/04/12 17:02:00;;;;;;;13.60;3.78;;;;;;;;;;5516825;26;20134;-63
2024/04/12 17:04:28;;;;;;;16.83;3.17;;;;;;;;;;5521384;25;20021;-63